Time;durP1;ratioP1;P1;durP2;ratioP2;P2;SDS_P1;SDS_P2;PMS_P1;PMS_P2;Temp;Humidity;BMP_temperature;BMP_pressure;BME280_temperature;BME280_humidity;BME280_pressure;Samples;Min_cycle;Max_cycle;Signal;HPM_P1;HPM_P2
2024/03/01 00:02:15;;;;;;;50.37;45.77;;;5.90;81.30;;;;;;5107750;28;20163;-86
2024/03/01 00:04:42;;;;;;;52.53;47.63;;;6.10;81.60;;;;;;5108388;28;20634;-86
2024/03/01 00:07:07;;;;;;;51.27;46.77;;;6.10;81.20;;;;;;5089853;28;20178;-86
2024/03/01 00:09:33;;;;;;;55.17;50.27;;;6.00;80.90;;;;;;5089488;28;20198;-86
2024/03/01 00:11:59;;;;;;;55.43;50.33;;;6.00;81.20;;;;;;5089268;28;20185;-87
2024/03/01 00:14:24;;;;;;;55.03;50.10;;;6.00;81.30;;;;;;5108496;28;20250;-86
2024/03/01 00:16:50;;;;;;;55.87;50.97;;;6.00;81.10;;;;;;5089886;28;20265;-86
2024/03/01 00:19:16;;;;;;;56.10;51.13;;;6.00;81.00;;;;;;5107783;28;20209;-86
2024/03/01 00:21:41;;;;;;;56.33;51.37;;;5.90;81.00;;;;;;5088324;28;20178;-86
2024/03/01 00:24:07;;;;;;;53.27;48.37;;;5.90;81.00;;;;;;5089028;28;20178;-86
2024/03/01 00:26:33;;;;;;;55.47;50.63;;;5.80;81.10;;;;;;5107536;28;20549;-86
2024/03/01 00:28:59;;;;;;;39.87;35.80;;;5.80;81.30;;;;;;5107267;28;20678;-86
2024/03/01 00:31:25;;;;;;;39.87;35.70;;;5.70;81.30;;;;;;5106367;28;20174;-86
2024/03/01 00:33:51;;;;;;;39.97;35.70;;;5.60;81.40;;;;;;5088648;28;20269;-86
2024/03/01 00:36:16;;;;;;;40.13;35.90;;;5.60;81.50;;;;;;5087822;28;20174;-87
2024/03/01 00:38:42;;;;;;;39.50;35.30;;;5.50;81.60;;;;;;5106055;28;20201;-86
2024/03/01 00:41:07;;;;;;;41.13;36.83;;;5.50;81.90;;;;;;5105702;28;20178;-86
2024/03/01 00:43:33;;;;;;;39.83;35.83;;;5.50;81.80;;;;;;5088908;28;20178;-87
2024/03/01 00:45:59;;;;;;;40.07;36.17;;;5.50;81.80;;;;;;5088223;28;20269;-86
2024/03/01 00:48:25;;;;;;;38.87;34.87;;;5.50;81.80;;;;;;5088523;28;20202;-86
2024/03/01 00:50:50;;;;;;;40.83;36.47;;;5.40;81.90;;;;;;5088825;28;20179;-86
2024/03/01 00:53:16;;;;;;;41.43;36.90;;;5.40;81.80;;;;;;5088152;28;20186;-86
2024/03/01 00:55:42;;;;;;;39.13;34.97;;;5.30;81.80;;;;;;5106201;28;20673;-86
2024/03/01 00:58:08;;;;;;;39.03;34.97;;;5.20;82.40;;;;;;5088224;28;20212;-86
2024/03/01 01:00:34;;;;;;;40.30;36.07;;;5.20;82.60;;;;;;5088232;28;20182;-86
2024/03/01 01:03:00;;;;;;;40.20;35.90;;;5.30;82.40;;;;;;5106869;28;20189;-87
2024/03/01 01:05:26;;;;;;;38.70;34.53;;;5.30;82.10;;;;;;5088025;28;20674;-86
2024/03/01 01:07:51;;;;;;;37.80;34.00;;;5.30;82.50;;;;;;5087916;28;20170;-86
2024/03/01 01:10:17;;;;;;;39.70;35.70;;;5.30;82.50;;;;;;5087730;28;20174;-86
2024/03/01 01:12:42;;;;;;;37.60;33.77;;;5.30;82.60;;;;;;5106428;28;20543;-86
2024/03/01 01:15:08;;;;;;;38.30;34.20;;;5.30;82.50;;;;;;5105850;28;20200;-86
2024/03/01 01:17:34;;;;;;;38.10;34.20;;;5.40;82.50;;;;;;5106293;28;20692;-86
2024/03/01 01:20:00;;;;;;;38.90;34.80;;;5.30;82.50;;;;;;5087986;28;20202;-86
2024/03/01 01:22:26;;;;;;;37.33;33.43;;;5.20;82.70;;;;;;5106441;28;20238;-86
2024/03/01 01:24:53;;;;;;;50.83;45.80;;;5.20;82.90;;;;;;5087941;28;20189;-86
2024/03/01 01:27:19;;;;;;;46.93;42.10;;;5.20;83.00;;;;;;5105859;28;20200;-86
2024/03/01 01:29:44;;;;;;;52.57;47.13;;;5.10;83.00;;;;;;5106301;28;20194;-86
2024/03/01 01:32:10;;;;;;;50.83;46.03;;;5.20;83.10;;;;;;5106131;28;20190;-86
2024/03/01 01:34:35;;;;;;;48.90;44.03;;;5.20;83.10;;;;;;5087583;28;20209;-87
2024/03/01 01:37:01;;;;;;;49.23;44.43;;;5.30;83.10;;;;;;5087731;28;20269;-86
2024/03/01 01:39:27;;;;;;;48.37;43.50;;;5.30;83.20;;;;;;5104479;28;20198;-90
2024/03/01 01:41:52;;;;;;;47.77;42.93;;;5.20;83.30;;;;;;5082400;28;20186;-87
2024/03/01 01:44:18;;;;;;;44.23;39.97;;;5.20;83.20;;;;;;5087861;28;20186;-86
2024/03/01 01:46:50;;;;;;;45.93;41.30;;;5.20;83.30;;;;;;5105459;28;20167;-86
2024/03/01 01:49:23;;;;;;;48.60;42.37;;;5.20;83.40;;;;;;5087506;28;20248;-86
2024/03/01 01:51:49;;;;;;;47.60;42.67;;;5.20;83.40;;;;;;5081014;28;20209;-85
2024/03/01 01:54:15;;;;;;;44.33;40.03;;;5.20;83.50;;;;;;5077887;28;20237;-85
2024/03/01 01:56:42;;;;;;;46.70;41.93;;;5.10;83.60;;;;;;5095831;28;20167;-85
2024/03/01 01:59:09;;;;;;;43.67;39.17;;;5.10;83.70;;;;;;5077815;28;20244;-85
2024/03/01 02:01:35;;;;;;;45.50;40.63;;;5.10;83.70;;;;;;5095891;28;20165;-85
2024/03/01 02:04:01;;;;;;;42.57;38.30;;;5.00;83.70;;;;;;5077638;28;20227;-85
2024/03/01 02:06:27;;;;;;;43.97;39.47;;;5.00;83.90;;;;;;5077682;28;20190;-86
2024/03/01 02:08:52;;;;;;;46.17;40.83;;;5.00;84.00;;;;;;5095743;28;20206;-85
2024/03/01 02:11:18;;;;;;;43.97;39.77;;;4.90;84.10;;;;;;5077311;28;20232;-86
2024/03/01 02:13:44;;;;;;;44.80;40.33;;;4.90;84.10;;;;;;5095496;28;20198;-85
2024/03/01 02:16:09;;;;;;;46.00;41.20;;;4.80;84.10;;;;;;5077834;28;20630;-86
2024/03/01 02:18:35;;;;;;;42.77;38.47;;;4.80;84.20;;;;;;5076807;28;20217;-85
2024/03/01 02:21:08;;;;;;;45.40;40.47;;;4.80;84.20;;;;;;5077252;28;20216;-86
2024/03/01 02:23:35;;;;;;;44.43;39.90;;;4.80;84.30;;;;;;5076946;28;20167;-86
2024/03/01 02:26:01;;;;;;;44.80;40.10;;;4.70;84.40;;;;;;5095224;28;20598;-85
2024/03/01 02:28:27;;;;;;;47.60;42.70;;;4.60;84.40;;;;;;5095135;28;20230;-86
2024/03/01 02:30:52;;;;;;;44.93;40.50;;;4.60;84.60;;;;;;5076966;28;20270;-85
2024/03/01 02:33:19;;;;;;;47.83;43.03;;;4.60;84.60;;;;;;5077011;28;20253;-86
2024/03/01 02:35:45;;;;;;;46.97;42.10;;;4.40;84.60;;;;;;5076947;28;20174;-86
2024/03/01 02:38:11;;;;;;;46.57;41.97;;;4.50;85.00;;;;;;5094925;28;20189;-86
2024/03/01 02:40:37;;;;;;;46.83;42.03;;;4.50;85.00;;;;;;5076649;28;20711;-85
2024/03/01 02:43:02;;;;;;;45.47;40.97;;;4.50;84.80;;;;;;5076814;28;20167;-85
2024/03/01 02:45:28;;;;;;;45.60;41.13;;;4.60;84.70;;;;;;5095179;28;20197;-85
2024/03/01 02:47:54;;;;;;;47.13;42.23;;;4.60;84.50;;;;;;5076556;28;20190;-86
2024/03/01 02:50:20;;;;;;;48.03;43.00;;;4.40;84.50;;;;;;5076831;28;20181;-85
2024/03/01 02:52:45;;;;;;;49.30;44.10;;;4.50;84.80;;;;;;5095036;28;20177;-86
2024/03/01 02:55:11;;;;;;;46.30;41.43;;;4.50;84.80;;;;;;5095059;28;20208;-85
2024/03/01 02:57:36;;;;;;;47.20;42.07;;;4.50;84.80;;;;;;5094753;28;20188;-85
2024/03/01 03:00:05;;;;;;;47.87;42.83;;;4.40;84.80;;;;;;5076329;28;20166;-85
2024/03/01 03:02:33;;;;;;;46.80;41.80;;;4.50;85.00;;;;;;5094691;28;20179;-85
2024/03/01 03:04:59;;;;;;;50.17;42.20;;;4.40;85.00;;;;;;5094450;28;20182;-85
2024/03/01 03:07:25;;;;;;;48.27;43.20;;;4.30;85.10;;;;;;5076439;28;20180;-86
2024/03/01 03:09:50;;;;;;;44.50;39.73;;;4.30;85.30;;;;;;5076131;28;20202;-85
2024/03/01 03:12:16;;;;;;;48.57;43.27;;;4.30;85.30;;;;;;5094874;28;20183;-86
2024/03/01 03:14:41;;;;;;;48.17;43.47;;;4.30;85.50;;;;;;5094500;28;20213;-85
2024/03/01 03:17:07;;;;;;;48.83;43.63;;;4.10;85.40;;;;;;5076145;28;20188;-85
2024/03/01 03:19:34;;;;;;;50.20;44.57;;;4.00;85.60;;;;;;5094241;28;20256;-86
2024/03/01 03:21:59;;;;;;;48.87;43.67;;;4.00;85.90;;;;;;5075969;28;20177;-85
2024/03/01 03:24:25;;;;;;;48.80;43.70;;;4.10;85.90;;;;;;5076299;28;20193;-86
2024/03/01 03:26:50;;;;;;;49.57;44.27;;;4.00;85.90;;;;;;5094507;28;20179;-85
2024/03/01 03:29:16;;;;;;;49.33;44.07;;;4.10;85.90;;;;;;5076277;28;20664;-86
2024/03/01 03:31:41;;;;;;;48.40;43.40;;;4.00;85.80;;;;;;5094165;28;20182;-86
2024/03/01 03:34:08;;;;;;;40.83;35.47;;;4.10;85.80;;;;;;5093546;28;20268;-85
2024/03/01 03:36:34;;;;;;;39.60;33.43;;;4.10;85.80;;;;;;5094137;28;20224;-87
2024/03/01 03:38:59;;;;;;;35.90;31.33;;;4.00;85.70;;;;;;5076041;28;20186;-85
2024/03/01 03:41:25;;;;;;;41.57;33.43;;;3.90;85.80;;;;;;5075956;28;20178;-85
2024/03/01 03:43:50;;;;;;;40.80;33.23;;;3.90;85.90;;;;;;5076111;28;20181;-86
2024/03/01 03:46:16;;;;;;;41.00;32.93;;;3.80;86.10;;;;;;5075867;28;20234;-86
2024/03/01 03:48:41;;;;;;;44.23;35.03;;;3.90;86.10;;;;;;5094017;28;20280;-86
2024/03/01 03:51:07;;;;;;;43.80;35.50;;;3.90;86.00;;;;;;5075895;28;20605;-86
2024/03/01 03:53:32;;;;;;;42.60;35.90;;;3.90;86.20;;;;;;5094091;28;20197;-85
2024/03/01 03:55:58;;;;;;;44.40;36.73;;;4.00;86.10;;;;;;5075890;28;20227;-86
2024/03/01 03:58:23;;;;;;;42.40;34.13;;;4.10;85.90;;;;;;5075636;28;20202;-85
2024/03/01 04:00:49;;;;;;;41.73;35.00;;;4.00;85.80;;;;;;5075847;28;20182;-85
2024/03/01 04:03:14;;;;;;;43.97;35.17;;;4.10;85.70;;;;;;5075844;28;20185;-86
2024/03/01 04:05:40;;;;;;;43.23;35.03;;;4.00;85.80;;;;;;5094224;28;20219;-85
2024/03/01 04:08:05;;;;;;;43.43;35.60;;;3.80;85.80;;;;;;5075881;28;20193;-85
2024/03/01 04:10:33;;;;;;;44.90;35.53;;;3.80;86.10;;;;;;5075503;28;20204;-85
2024/03/01 04:13:00;;;;;;;41.03;34.10;;;3.80;86.50;;;;;;5075700;28;20177;-86
2024/03/01 04:15:25;;;;;;;42.47;34.37;;;3.80;86.50;;;;;;5076546;28;20205;-85
2024/03/01 04:17:51;;;;;;;49.03;36.33;;;3.80;86.50;;;;;;5075783;28;20244;-86
2024/03/01 04:20:17;;;;;;;44.77;35.17;;;3.70;86.50;;;;;;5075388;28;20205;-85
2024/03/01 04:22:42;;;;;;;44.70;35.33;;;3.80;86.80;;;;;;5075536;28;20186;-85
2024/03/01 04:25:09;;;;;;;45.13;36.63;;;3.80;86.60;;;;;;5093629;28;20205;-86
2024/03/01 04:27:37;;;;;;;54.93;46.53;;;3.80;86.70;;;;;;5075424;28;20680;-85
2024/03/01 04:30:04;;;;;;;52.17;45.07;;;3.80;86.80;;;;;;5075587;28;20197;-85
2024/03/01 04:32:30;;;;;;;55.57;47.93;;;3.80;86.70;;;;;;5075508;28;20181;-86
2024/03/01 04:34:55;;;;;;;51.80;45.53;;;3.90;86.80;;;;;;5093474;28;20204;-86
2024/03/01 04:37:21;;;;;;;53.80;45.10;;;3.80;86.70;;;;;;5075622;28;20182;-85
2024/03/01 04:39:46;;;;;;;53.70;45.83;;;3.80;86.70;;;;;;5093762;28;20269;-86
2024/03/01 04:42:12;;;;;;;57.27;46.43;;;3.70;87.00;;;;;;5094057;28;20178;-86
2024/03/01 04:44:43;;;;;;;50.90;42.93;;;3.80;86.90;;;;;;5093693;28;20181;-85
2024/03/01 04:47:10;;;;;;;53.27;43.60;;;3.80;87.00;;;;;;5096199;28;20207;-85
2024/03/01 04:49:35;;;;;;;54.67;44.50;;;3.80;87.10;;;;;;5079032;28;20244;-85
2024/03/01 04:52:01;;;;;;;56.10;46.53;;;3.80;87.00;;;;;;5096991;28;20178;-86
2024/03/01 04:54:27;;;;;;;53.10;42.47;;;3.70;87.20;;;;;;5078938;28;20216;-85
2024/03/01 04:56:52;;;;;;;53.77;45.40;;;3.70;87.30;;;;;;5078741;28;20169;-85
2024/03/01 04:59:18;;;;;;;55.40;47.10;;;3.60;87.40;;;;;;5078783;28;20739;-85
2024/03/01 05:01:43;;;;;;;51.53;44.77;;;3.60;87.50;;;;;;5078813;28;20168;-85
2024/03/01 05:04:09;;;;;;;55.60;44.97;;;3.60;87.50;;;;;;5096866;28;20177;-85
2024/03/01 05:06:36;;;;;;;53.27;46.47;;;3.60;87.60;;;;;;5079538;28;20260;-86
2024/03/01 05:09:03;;;;;;;56.27;44.73;;;3.50;87.50;;;;;;5096506;28;20188;-86
2024/03/01 05:11:33;;;;;;;53.30;45.07;;;3.50;87.60;;;;;;5078600;28;20555;-85
2024/03/01 05:13:59;;;;;;;53.47;45.50;;;3.40;87.60;;;;;;5078587;28;20236;-86
2024/03/01 05:16:25;;;;;;;57.30;45.57;;;3.30;87.70;;;;;;5078436;28;20170;-85
2024/03/01 05:18:51;;;;;;;53.67;45.20;;;3.30;87.90;;;;;;5078501;28;20568;-85
2024/03/01 05:21:16;;;;;;;50.37;39.30;;;3.30;88.00;;;;;;5078685;28;20186;-89
2024/03/01 05:23:42;;;;;;;51.47;35.67;;;3.20;88.00;;;;;;5096783;28;20180;-86
2024/03/01 05:26:09;;;;;;;58.23;45.10;;;3.30;88.10;;;;;;5078192;28;20557;-86
2024/03/01 05:28:35;;;;;;;56.43;44.40;;;3.30;88.10;;;;;;5078210;28;20202;-86
2024/03/01 05:31:01;;;;;;;52.37;42.97;;;3.30;88.10;;;;;;5078447;28;20182;-85
2024/03/01 05:33:28;;;;;;;62.77;47.83;;;3.30;88.20;;;;;;5078326;28;20705;-85
2024/03/01 05:35:53;;;;;;;56.20;45.00;;;3.30;88.20;;;;;;5096413;28;20646;-86
2024/03/01 05:38:19;;;;;;;55.90;45.73;;;3.20;88.30;;;;;;5096218;28;20200;-85
2024/03/01 05:40:44;;;;;;;53.30;43.27;;;3.10;88.40;;;;;;5078196;28;20170;-85
2024/03/01 05:43:10;;;;;;;56.07;45.23;;;3.30;88.70;;;;;;5078326;28;20167;-85
2024/03/01 05:45:36;;;;;;;61.67;45.87;;;3.30;88.70;;;;;;5078148;28;20173;-85
2024/03/01 05:48:03;;;;;;;56.83;43.97;;;3.30;88.70;;;;;;5077889;28;20190;-86
2024/03/01 05:50:28;;;;;;;57.57;46.53;;;3.30;88.60;;;;;;5077913;28;20181;-86
2024/03/01 05:52:54;;;;;;;57.87;46.13;;;3.10;88.60;;;;;;5078036;28;20265;-85
2024/03/01 05:55:20;;;;;;;51.87;37.03;;;3.20;89.00;;;;;;5096195;28;20233;-85
2024/03/01 05:57:46;;;;;;;54.83;38.03;;;3.10;88.90;;;;;;5095026;28;20201;-86
2024/03/01 06:00:21;;;;;;;54.93;38.40;;;3.20;89.20;;;;;;5077830;28;20175;-86
2024/03/01 06:02:47;;;;;;;50.60;37.23;;;3.10;89.20;;;;;;5077632;28;20166;-85
2024/03/01 06:05:15;;;;;;;50.03;36.30;;;3.20;89.30;;;;;;5095940;28;20256;-85
2024/03/01 06:07:40;;;;;;;50.83;37.27;;;3.20;89.10;;;;;;5077569;28;20308;-85
2024/03/01 06:10:06;;;;;;;47.33;37.07;;;3.20;89.10;;;;;;5077418;28;20204;-87
2024/03/01 06:12:32;;;;;;;55.97;39.10;;;3.30;89.10;;;;;;5077397;28;20222;-85
2024/03/01 06:14:57;;;;;;;51.10;38.53;;;3.40;89.00;;;;;;5077277;28;20810;-85
2024/03/01 06:17:23;;;;;;;50.87;38.07;;;3.30;88.60;;;;;;5095614;28;20165;-85
2024/03/01 06:19:48;;;;;;;54.70;38.07;;;3.30;88.60;;;;;;5077402;28;20215;-86
2024/03/01 06:22:14;;;;;;;51.07;38.03;;;3.10;88.60;;;;;;5077202;28;20168;-85
2024/03/01 06:24:39;;;;;;;48.83;36.10;;;3.10;88.80;;;;;;5077380;28;20188;-85
2024/03/01 06:27:05;;;;;;;48.67;36.37;;;3.00;88.90;;;;;;5095423;28;20714;-86
2024/03/01 06:29:30;;;;;;;48.23;35.60;;;3.00;88.80;;;;;;5077281;28;20198;-86
2024/03/01 06:31:56;;;;;;;49.63;35.83;;;3.00;88.70;;;;;;5077126;28;20189;-85
2024/03/01 06:34:22;;;;;;;41.97;34.30;;;3.00;88.60;;;;;;5094939;28;20204;-85
2024/03/01 06:36:48;;;;;;;48.53;36.30;;;2.90;88.30;;;;;;5095566;28;20178;-88
2024/03/01 06:39:14;;;;;;;49.07;35.77;;;2.90;88.30;;;;;;5077169;28;20709;-86
2024/03/01 06:41:40;;;;;;;45.23;36.93;;;2.80;88.20;;;;;;5077146;28;20267;-86
2024/03/01 06:44:06;;;;;;;48.37;37.33;;;2.80;88.20;;;;;;5076759;28;20220;-85
2024/03/01 06:46:31;;;;;;;51.27;38.43;;;2.90;88.30;;;;;;5076537;28;20177;-85
2024/03/01 06:49:00;;;;;;;50.70;39.07;;;2.90;88.30;;;;;;5076846;28;20204;-86
2024/03/01 06:51:27;;;;;;;50.87;38.27;;;3.00;88.30;;;;;;5094815;28;20177;-86
2024/03/01 06:53:52;;;;;;;58.07;47.30;;;3.20;88.50;;;;;;5094920;28;20200;-86
2024/03/01 06:56:18;;;;;;;63.97;47.47;;;3.30;88.60;;;;;;5076813;28;20522;-85
2024/03/01 06:58:43;;;;;;;57.43;45.43;;;3.30;88.70;;;;;;5076748;28;20189;-85
2024/03/01 07:01:10;;;;;;;60.93;46.27;;;3.40;88.90;;;;;;5094840;28;20234;-85
2024/03/01 07:03:36;;;;;;;58.23;45.50;;;3.30;89.00;;;;;;5076519;28;20171;-86
2024/03/01 07:06:01;;;;;;;59.43;45.23;;;3.40;89.30;;;;;;5094703;28;20202;-85
2024/03/01 07:08:27;;;;;;;58.43;46.77;;;3.60;89.40;;;;;;5095116;28;20785;-85
2024/03/01 07:10:54;;;;;;;62.80;45.20;;;3.60;89.30;;;;;;5094589;28;20260;-85
2024/03/01 07:13:20;;;;;;;56.27;44.30;;;3.70;89.30;;;;;;5076523;28;20652;-85
2024/03/01 07:15:46;;;;;;;52.73;42.07;;;3.70;89.20;;;;;;5076597;28;20178;-85
2024/03/01 07:18:11;;;;;;;60.97;45.30;;;3.80;89.30;;;;;;5076255;28;20214;-85
2024/03/01 07:20:37;;;;;;;60.80;44.03;;;3.70;89.20;;;;;;5094926;28;20154;-86
2024/03/01 07:23:02;;;;;;;58.37;43.43;;;3.70;89.40;;;;;;5094992;28;20181;-86
2024/03/01 07:25:28;;;;;;;57.20;43.93;;;3.70;89.50;;;;;;5095668;28;20210;-87
2024/03/01 07:27:53;;;;;;;57.30;44.03;;;3.70;89.60;;;;;;5077213;28;20693;-86
2024/03/01 07:30:19;;;;;;;56.53;42.70;;;3.80;89.50;;;;;;5094984;28;20658;-85
2024/03/01 07:32:46;;;;;;;60.83;43.93;;;3.70;89.40;;;;;;5094480;28;20178;-85
2024/03/01 07:35:11;;;;;;;54.80;43.17;;;3.60;89.60;;;;;;5094290;28;20702;-85
2024/03/01 07:37:39;;;;;;;61.13;45.73;;;3.60;89.80;;;;;;5075912;28;20177;-86
2024/03/01 07:40:05;;;;;;;56.47;41.77;;;3.60;90.00;;;;;;5094023;28;20259;-85
2024/03/01 07:42:31;;;;;;;58.73;45.80;;;3.70;90.10;;;;;;5094091;28;20169;-87
2024/03/01 07:44:56;;;;;;;57.47;42.97;;;3.80;90.10;;;;;;5094216;28;20182;-86
2024/03/01 07:47:25;;;;;;;64.63;44.27;;;3.80;90.10;;;;;;5094003;28;20257;-86
2024/03/01 07:49:51;;;;;;;56.57;44.00;;;3.80;90.20;;;;;;5076846;28;20194;-86
2024/03/01 07:52:16;;;;;;;60.33;45.23;;;3.90;90.30;;;;;;5101031;22;20233;-88
2024/03/01 07:54:42;;;;;;;61.60;46.43;;;4.10;90.40;;;;;;5055800;28;20195;-87
2024/03/01 07:57:07;;;;;;;55.00;43.20;;;4.30;90.40;;;;;;5072850;28;20183;-88
2024/03/01 07:59:33;;;;;;;62.20;44.73;;;4.40;90.30;;;;;;5055075;28;20182;-89
2024/03/01 08:01:59;;;;;;;57.70;43.90;;;4.40;90.10;;;;;;5073184;28;20216;-88
2024/03/01 08:04:26;;;;;;;53.90;40.80;;;4.50;90.00;;;;;;5054965;28;20573;-88
2024/03/01 08:06:52;;;;;;;53.13;41.67;;;4.60;90.00;;;;;;5054873;28;20171;-88
2024/03/01 08:09:22;;;;;;;59.57;43.10;;;4.70;89.80;;;;;;5072843;28;20185;-87
2024/03/01 08:11:48;;;;;;;57.67;43.83;;;4.60;89.80;;;;;;5054952;28;20199;-88
2024/03/01 08:14:34;;;;;;;61.57;43.90;;;4.80;89.80;;;;;;5054832;28;20289;-87
2024/03/01 08:17:00;;;;;;;52.97;42.83;;;4.80;89.50;;;;;;5055908;28;20168;-88
2024/03/01 08:19:33;;;;;;;54.70;41.83;;;5.00;89.30;;;;;;5054790;28;20255;-87
2024/03/01 08:22:19;;;;;;;52.63;41.53;;;5.10;89.10;;;;;;5057245;28;20671;-88
2024/03/01 08:24:52;;;;;;;51.90;41.80;;;5.20;89.00;;;;;;5076197;28;20187;-88
2024/03/01 08:27:24;;;;;;;56.83;43.37;;;5.20;88.90;;;;;;5058699;28;20266;-88
2024/03/01 08:29:49;;;;;;;56.10;42.57;;;5.30;88.90;;;;;;5058674;28;20210;-88
2024/03/01 08:32:42;;;;;;;56.97;42.20;;;5.40;88.60;;;;;;5058392;28;20196;-88
2024/03/01 08:35:16;;;;;;;51.37;40.97;;;5.40;88.60;;;;;;5076334;28;20194;-87
2024/03/01 08:37:42;;;;;;;53.17;40.90;;;5.50;88.60;;;;;;5076592;28;20186;-87
2024/03/01 08:40:35;;;;;;;54.10;40.07;;;5.60;88.60;;;;;;5076502;28;20670;-88
2024/03/01 08:43:02;;;;;;;54.27;43.10;;;5.70;88.50;;;;;;5042523;28;20176;-88
2024/03/01 08:45:46;;;;;;;55.70;41.23;;;5.80;88.30;;;;;;5058276;28;20175;-87
2024/03/01 08:48:18;;;;;;;56.03;43.07;;;5.80;88.30;;;;;;5058374;28;20172;-87
2024/03/01 08:50:51;;;;;;;54.67;42.17;;;5.80;88.00;;;;;;5058126;28;20210;-88
2024/03/01 08:53:38;;;;;;;63.23;41.90;;;5.80;87.80;;;;;;5076147;28;20179;-88
2024/03/01 08:56:04;;;;;;;52.70;35.40;;;5.90;87.50;;;;;;5075952;28;20639;-87
2024/03/01 08:58:30;;;;;;;51.37;34.97;;;5.90;87.60;;;;;;5058069;28;20183;-88
2024/03/01 09:00:56;;;;;;;49.43;34.97;;;6.10;87.70;;;;;;5058203;28;20286;-87
2024/03/01 09:03:25;;;;;;;47.37;34.90;;;6.10;87.50;;;;;;5075880;28;20195;-88
2024/03/01 09:05:53;;;;;;;48.60;34.37;;;6.20;87.40;;;;;;5075890;28;20175;-88
2024/03/01 09:08:26;;;;;;;52.10;39.97;;;6.30;87.30;;;;;;5057974;28;20171;-88
2024/03/01 09:10:53;;;;;;;50.77;41.70;;;6.40;87.20;;;;;;5075781;28;20603;-88
2024/03/01 09:13:20;;;;;;;51.97;42.30;;;6.50;86.80;;;;;;5075773;28;20205;-88
2024/03/01 09:15:46;;;;;;;52.93;41.70;;;6.60;86.70;;;;;;5057788;28;20186;-88
2024/03/01 09:18:38;;;;;;;53.50;40.03;;;6.70;86.70;;;;;;5057748;28;20171;-88
2024/03/01 09:21:35;;;;;;;44.47;36.53;;;6.90;86.70;;;;;;5075551;28;20195;-87
2024/03/01 09:24:02;;;;;;;50.10;39.30;;;7.10;86.70;;;;;;5057649;28;20705;-88
2024/03/01 09:26:29;;;;;;;47.83;37.60;;;7.20;86.20;;;;;;5057958;28;20183;-90
2024/03/01 09:29:03;;;;;;;53.90;38.80;;;7.30;85.80;;;;;;5057937;28;20175;-87
2024/03/01 09:31:31;;;;;;;49.10;37.17;;;7.40;85.70;;;;;;5057427;28;20210;-88
2024/03/01 09:34:01;;;;;;;48.63;38.93;;;7.60;85.60;;;;;;5056061;28;20597;-88
2024/03/01 09:36:26;;;;;;;50.53;40.47;;;7.70;84.80;;;;;;5075521;28;20187;-88
2024/03/01 09:38:54;;;;;;;46.93;34.43;;;7.80;84.30;;;;;;5057842;28;20171;-87
2024/03/01 09:41:38;;;;;;;39.83;32.20;;;7.90;84.30;;;;;;5057529;28;20195;-88
2024/03/01 09:44:38;;;;;;;48.23;34.40;;;8.00;83.60;;;;;;5057260;28;20174;-88
2024/03/01 09:47:27;;;;;;;40.27;34.07;;;8.30;83.10;;;;;;5015254;28;20190;-87
2024/03/01 09:50:34;;;;;;;40.80;33.07;;;8.30;82.80;;;;;;5046461;28;20180;-87
2024/03/01 09:53:27;;;;;;;46.73;32.13;;;8.60;82.10;;;;;;5075054;28;20189;-89
2024/03/01 09:56:11;;;;;;;43.20;33.17;;;8.80;82.00;;;;;;5057092;28;20190;-89
2024/03/01 09:59:04;;;;;;;42.90;32.93;;;8.80;81.40;;;;;;5057207;28;20179;-89
2024/03/01 10:01:40;;;;;;;40.00;32.93;;;8.80;81.20;;;;;;5057554;28;20581;-88
2024/03/01 10:04:28;;;;;;;43.63;34.00;;;8.80;81.10;;;;;;5074929;28;20244;-89
2024/03/01 10:07:23;;;;;;;40.47;32.70;;;8.90;81.00;;;;;;5056781;28;20203;-89
2024/03/01 10:10:20;;;;;;;40.17;32.43;;;9.00;81.20;;;;;;5040040;28;20720;-88
2024/03/01 10:13:02;;;;;;;39.00;32.43;;;9.00;81.40;;;;;;5056718;28;20168;-89
2024/03/01 10:15:44;;;;;;;39.20;31.53;;;9.10;81.30;;;;;;5074717;28;20290;-88
2024/03/01 10:18:47;;;;;;;37.73;31.70;;;9.10;80.90;;;;;;5074468;28;20262;-89
2024/03/01 10:21:25;;;;;;;38.47;31.87;;;9.20;81.20;;;;;;4986423;28;20216;-88
2024/03/01 10:24:01;;;;;;;38.77;31.40;;;9.30;80.80;;;;;;5056485;28;20171;-89
2024/03/01 10:26:28;;;;;;;36.80;31.40;;;9.30;80.90;;;;;;5056566;28;20179;-89
2024/03/01 10:29:15;;;;;;;38.67;32.97;;;9.30;80.90;;;;;;5056495;28;20183;-90
2024/03/01 10:32:03;;;;;;;40.23;32.03;;;9.20;80.90;;;;;;5056322;28;20337;-89
2024/03/01 10:35:01;;;;;;;39.30;31.80;;;9.20;81.30;;;;;;5056341;28;20203;-89
2024/03/01 10:37:42;;;;;;;38.37;31.67;;;9.30;81.40;;;;;;5056312;28;20167;-89
2024/03/01 10:40:19;;;;;;;37.30;31.73;;;9.30;81.20;;;;;;5074050;28;20155;-89
2024/03/01 10:43:09;;;;;;;34.27;30.53;;;9.30;81.30;;;;;;5056421;28;20548;-88
2024/03/01 10:45:47;;;;;;;38.23;30.43;;;9.30;80.70;;;;;;5055724;28;20177;-89
2024/03/01 10:48:14;;;;;;;37.50;31.50;;;9.50;81.20;;;;;;5074234;28;20195;-88
2024/03/01 10:50:46;;;;;;;35.27;30.80;;;9.50;81.20;;;;;;5055791;28;20587;-89
2024/03/01 10:53:33;;;;;;;36.63;29.80;;;9.50;81.10;;;;;;5055945;28;20221;-89
2024/03/01 10:56:04;;;;;;;31.00;27.80;;;9.50;81.30;;;;;;5074066;28;20205;-89
2024/03/01 10:58:46;;;;;;;32.37;28.60;;;9.50;81.50;;;;;;5055797;28;20160;-89
2024/03/01 11:01:25;;;;;;;34.93;27.97;;;9.50;80.60;;;;;;5073561;28;20240;-89
2024/03/01 11:04:04;;;;;;;30.47;27.33;;;9.50;80.90;;;;;;5073679;28;20162;-89
2024/03/01 11:06:49;;;;;;;33.37;29.10;;;9.60;80.90;;;;;;5073913;28;20162;-89
2024/03/01 11:09:26;;;;;;;33.20;28.83;;;9.50;81.60;;;;;;5056026;28;20178;-90
2024/03/01 11:12:10;;;;;;;35.27;27.30;;;9.50;81.30;;;;;;5055494;28;20191;-89
2024/03/01 11:14:56;;;;;;;31.10;26.07;;;9.50;80.70;;;;;;5073441;28;20191;-90
2024/03/01 11:17:25;;;;;;;30.73;27.20;;;9.50;81.60;;;;;;5073754;28;20166;-88
2024/03/01 11:19:55;;;;;;;34.67;27.17;;;9.60;81.10;;;;;;5055675;28;20281;-89
2024/03/01 11:22:26;;;;;;;30.37;27.23;;;9.60;81.00;;;;;;5056353;28;20733;-89
2024/03/01 11:25:12;;;;;;;33.20;28.27;;;9.70;80.60;;;;;;5073266;28;20235;-89
2024/03/01 11:27:48;;;;;;;31.37;25.60;;;9.70;80.50;;;;;;5055823;28;20229;-90
2024/03/01 11:30:19;;;;;;;29.30;26.03;;;9.80;80.90;;;;;;5073883;28;20262;-90
2024/03/01 11:32:48;;;;;;;29.80;26.20;;;9.80;80.90;;;;;;5073711;28;20160;-90
2024/03/01 11:35:47;;;;;;;32.03;25.63;;;9.80;80.30;;;;;;5055372;28;20211;-90
2024/03/01 11:38:34;;;;;;;30.60;26.47;;;9.90;80.60;;;;;;5055615;28;20255;-89
2024/03/01 11:41:26;;;;;;;29.23;25.83;;;10.00;79.70;;;;;;5055147;28;20206;-89
2024/03/01 11:44:51;;;;;;;28.37;25.33;;;10.10;79.90;;;;;;5055364;28;20200;-89
2024/03/01 11:47:35;;;;;;;32.77;27.47;;;10.10;79.80;;;;;;5055438;28;20197;-90
2024/03/01 11:50:16;;;;;;;32.00;27.40;;;10.20;80.30;;;;;;5055482;28;20181;-90
2024/03/01 11:52:58;;;;;;;31.77;26.83;;;10.20;80.30;;;;;;5055268;28;20201;-89
2024/03/01 11:55:54;;;;;;;32.33;26.10;;;10.20;80.80;;;;;;5055224;28;20191;-89
2024/03/01 11:58:20;;;;;;;32.50;26.83;;;10.30;80.90;;;;;;5059266;28;20163;-89
2024/03/01 12:01:11;;;;;;;34.67;26.67;;;10.30;80.70;;;;;;5077189;28;20214;-89
2024/03/01 12:03:45;;;;;;;31.27;27.97;;;10.30;80.80;;;;;;5077141;28;20172;-89
2024/03/01 12:06:41;;;;;;;32.90;27.20;;;10.40;81.40;;;;;;5059264;28;20166;-90
2024/03/01 12:09:31;;;;;;;31.53;25.87;;;10.40;80.60;;;;;;5059155;28;20168;-89
2024/03/01 12:12:35;;;;;;;36.10;32.20;;;10.40;80.40;;;;;;5059956;28;20191;-89
2024/03/01 12:15:04;;;;;;;40.90;36.80;;;10.40;80.60;;;;;;5029125;28;20219;-89
2024/03/01 12:17:43;;;;;;;37.47;33.63;;;10.40;80.10;;;;;;5058951;28;20179;-89
2024/03/01 12:20:11;;;;;;;36.87;33.23;;;10.50;80.30;;;;;;5058977;28;20261;-89
2024/03/01 12:22:50;;;;;;;36.70;33.00;;;10.50;80.20;;;;;;5058776;28;20625;-89
2024/03/01 12:25:22;;;;;;;36.13;32.53;;;10.50;80.40;;;;;;5076736;28;20152;-89
2024/03/01 12:28:08;;;;;;;36.30;32.43;;;10.50;80.10;;;;;;5058828;28;20734;-89
2024/03/01 12:30:37;;;;;;;36.37;32.97;;;10.50;80.40;;;;;;5058807;28;20191;-89
2024/03/01 12:33:23;;;;;;;34.80;31.10;;;10.60;80.30;;;;;;5076599;28;20189;-89
2024/03/01 12:36:02;;;;;;;33.33;29.93;;;10.50;79.80;;;;;;5058321;28;20686;-89
2024/03/01 12:38:36;;;;;;;35.17;29.40;;;10.60;80.50;;;;;;5058573;28;20301;-89
2024/03/01 12:41:10;;;;;;;33.73;30.13;;;10.60;80.60;;;;;;5076394;28;20199;-89
2024/03/01 12:43:54;;;;;;;33.40;30.10;;;10.40;80.20;;;;;;5058458;28;20171;-89
2024/03/01 12:46:57;;;;;;;35.60;31.87;;;10.40;80.70;;;;;;5058461;28;20175;-89
2024/03/01 12:49:49;;;;;;;37.93;33.83;;;10.50;80.80;;;;;;5058792;28;20672;-89
2024/03/01 12:52:24;;;;;;;39.07;33.47;;;10.40;80.90;;;;;;5076152;28;20203;-90
2024/03/01 12:54:57;;;;;;;37.57;33.23;;;10.50;80.70;;;;;;5058323;28;20570;-89